sensor_id;sensor_type;location;lat;lon;timestamp;pressure;altitude;pressure_sealevel;temperature;humidity
31911;BME280;18457;52.432;16.914;2023-05-15T00:00:37;100089.67;;;16.98;56.52
31911;BME280;18457;52.432;16.914;2023-05-15T00:03:29;100087.51;;;17.04;56.41
31911;BME280;18457;52.432;16.914;2023-05-15T00:06:01;100077.17;;;16.96;56.51
31911;BME280;18457;52.432;16.914;2023-05-15T00:08:33;100078.63;;;16.97;56.61
31911;BME280;18457;52.432;16.914;2023-05-15T00:11:04;100074.74;;;16.91;56.94
31911;BME280;18457;52.432;16.914;2023-05-15T00:13:37;100068.90;;;16.94;56.96
31911;BME280;18457;52.432;16.914;2023-05-15T00:16:09;100061.58;;;16.95;56.99
31911;BME280;18457;52.432;16.914;2023-05-15T00:18:41;100058.08;;;16.99;57.05
31911;BME280;18457;52.432;16.914;2023-05-15T00:21:13;100055.70;;;17.05;56.62
31911;BME280;18457;52.432;16.914;2023-05-15T00:23:45;100055.27;;;17.12;56.36
31911;BME280;18457;52.432;16.914;2023-05-15T00:26:17;100047.33;;;17.14;56.11
31911;BME280;18457;52.432;16.914;2023-05-15T00:28:48;100042.50;;;17.16;56.28
31911;BME280;18457;52.432;16.914;2023-05-15T00:31:20;100036.89;;;17.08;56.22
31911;BME280;18457;52.432;16.914;2023-05-15T00:33:52;100038.45;;;17.10;56.03
31911;BME280;18457;52.432;16.914;2023-05-15T00:36:24;100036.06;;;17.07;56.30
31911;BME280;18457;52.432;16.914;2023-05-15T00:38:56;100033.83;;;17.11;56.19
31911;BME280;18457;52.432;16.914;2023-05-15T00:41:28;100026.02;;;17.13;56.31
31911;BME280;18457;52.432;16.914;2023-05-15T00:44:02;100016.73;;;17.13;56.40
31911;BME280;18457;52.432;16.914;2023-05-15T00:46:36;100012.11;;;17.11;56.32
31911;BME280;18457;52.432;16.914;2023-05-15T00:49:09;100009.11;;;17.06;56.43
31911;BME280;18457;52.432;16.914;2023-05-15T00:51:43;100003.94;;;17.03;56.72
31911;BME280;18457;52.432;16.914;2023-05-15T00:54:15;100006.94;;;17.05;56.58
31911;BME280;18457;52.432;16.914;2023-05-15T00:56:47;100011.63;;;17.13;56.33
31911;BME280;18457;52.432;16.914;2023-05-15T00:59:20;100025.17;;;17.15;56.07
31911;BME280;18457;52.432;16.914;2023-05-15T01:01:53;100024.80;;;17.19;56.25
31911;BME280;18457;52.432;16.914;2023-05-15T01:04:25;100012.42;;;17.21;57.83
31911;BME280;18457;52.432;16.914;2023-05-15T01:06:57;100005.27;;;16.99;62.88
31911;BME280;18457;52.432;16.914;2023-05-15T01:09:30;100005.23;;;16.81;62.14
31911;BME280;18457;52.432;16.914;2023-05-15T01:12:05;100006.23;;;16.83;63.15
31911;BME280;18457;52.432;16.914;2023-05-15T01:14:38;100014.71;;;16.81;65.85
31911;BME280;18457;52.432;16.914;2023-05-15T01:17:10;100025.77;;;16.79;67.06
31911;BME280;18457;52.432;16.914;2023-05-15T01:19:42;100036.52;;;16.76;66.72
31911;BME280;18457;52.432;16.914;2023-05-15T01:22:37;100043.83;;;16.76;66.17
31911;BME280;18457;52.432;16.914;2023-05-15T01:28:19;100076.64;;;16.63;67.82
31911;BME280;18457;52.432;16.914;2023-05-15T01:30:55;100066.44;;;16.42;70.25
31911;BME280;18457;52.432;16.914;2023-05-15T01:33:32;100057.79;;;16.33;71.88
31911;BME280;18457;52.432;16.914;2023-05-15T01:36:09;100041.00;;;16.27;73.68
31911;BME280;18457;52.432;16.914;2023-05-15T01:38:48;100035.35;;;16.13;73.21
31911;BME280;18457;52.432;16.914;2023-05-15T01:41:25;100021.58;;;15.95;72.55
31911;BME280;18457;52.432;16.914;2023-05-15T01:44:01;100013.23;;;15.84;73.59
31911;BME280;18457;52.432;16.914;2023-05-15T01:46:40;100006.97;;;15.74;73.47
31911;BME280;18457;52.432;16.914;2023-05-15T01:49:16;100000.64;;;15.77;74.36
31911;BME280;18457;52.432;16.914;2023-05-15T01:51:52;99999.34;;;15.74;75.61
31911;BME280;18457;52.432;16.914;2023-05-15T01:54:26;99993.60;;;15.69;76.34
31911;BME280;18457;52.432;16.914;2023-05-15T01:56:59;99992.36;;;15.65;77.26
31911;BME280;18457;52.432;16.914;2023-05-15T01:59:33;99987.63;;;15.64;77.62
31911;BME280;18457;52.432;16.914;2023-05-15T02:02:06;99986.34;;;15.72;78.09
31911;BME280;18457;52.432;16.914;2023-05-15T02:04:41;99984.80;;;15.74;77.84
31911;BME280;18457;52.432;16.914;2023-05-15T02:07:16;99986.80;;;15.84;77.70
31911;BME280;18457;52.432;16.914;2023-05-15T02:09:48;99977.06;;;15.79;77.92
31911;BME280;18457;52.432;16.914;2023-05-15T02:12:22;99975.39;;;15.80;78.00
31911;BME280;18457;52.432;16.914;2023-05-15T02:14:55;99967.55;;;15.72;77.95
31911;BME280;18457;52.432;16.914;2023-05-15T02:17:29;99965.70;;;15.63;79.81
31911;BME280;18457;52.432;16.914;2023-05-15T02:20:00;99964.39;;;15.63;79.15
31911;BME280;18457;52.432;16.914;2023-05-15T02:22:34;99960.23;;;15.66;79.19
31911;BME280;18457;52.432;16.914;2023-05-15T02:25:07;99960.17;;;15.70;78.59
31911;BME280;18457;52.432;16.914;2023-05-15T02:27:45;99952.44;;;15.62;78.17
31911;BME280;18457;52.432;16.914;2023-05-15T02:30:30;99941.92;;;15.61;76.94
31911;BME280;18457;52.432;16.914;2023-05-15T02:33:13;99937.20;;;15.71;76.58
31911;BME280;18457;52.432;16.914;2023-05-15T02:35:54;99931.88;;;15.75;75.95
31911;BME280;18457;52.432;16.914;2023-05-15T02:38:30;99920.02;;;15.65;76.14
31911;BME280;18457;52.432;16.914;2023-05-15T02:41:05;99918.29;;;15.71;74.56
31911;BME280;18457;52.432;16.914;2023-05-15T02:43:39;99912.59;;;15.71;73.86
31911;BME280;18457;52.432;16.914;2023-05-15T02:46:13;99904.91;;;15.68;73.60
31911;BME280;18457;52.432;16.914;2023-05-15T02:48:46;99896.73;;;15.65;73.71
31911;BME280;18457;52.432;16.914;2023-05-15T02:51:17;99892.91;;;15.65;73.70
31911;BME280;18457;52.432;16.914;2023-05-15T02:53:49;99886.64;;;15.77;72.78
31911;BME280;18457;52.432;16.914;2023-05-15T02:56:21;99886.81;;;15.84;72.57
31911;BME280;18457;52.432;16.914;2023-05-15T02:58:53;99882.21;;;15.85;72.20
31911;BME280;18457;52.432;16.914;2023-05-15T03:01:24;99878.45;;;15.80;71.27
31911;BME280;18457;52.432;16.914;2023-05-15T03:03:56;99871.27;;;15.65;72.25
31911;BME280;18457;52.432;16.914;2023-05-15T03:06:28;99861.56;;;15.65;71.75
31911;BME280;18457;52.432;16.914;2023-05-15T03:09:01;99863.27;;;15.68;72.34
31911;BME280;18457;52.432;16.914;2023-05-15T03:11:33;99885.90;;;15.80;71.49
31911;BME280;18457;52.432;16.914;2023-05-15T03:14:05;99862.61;;;15.59;72.49
31911;BME280;18457;52.432;16.914;2023-05-15T03:16:37;99859.12;;;15.60;71.77
31911;BME280;18457;52.432;16.914;2023-05-15T03:19:09;99850.85;;;15.58;71.24
31911;BME280;18457;52.432;16.914;2023-05-15T03:21:41;99843.52;;;15.55;71.53
31911;BME280;18457;52.432;16.914;2023-05-15T03:24:12;99842.93;;;15.67;72.37
31911;BME280;18457;52.432;16.914;2023-05-15T03:26:44;99844.90;;;15.70;73.46
31911;BME280;18457;52.432;16.914;2023-05-15T03:29:16;99838.86;;;15.58;74.45
31911;BME280;18457;52.432;16.914;2023-05-15T03:31:48;99840.08;;;15.59;73.96
31911;BME280;18457;52.432;16.914;2023-05-15T03:34:20;99832.52;;;15.64;74.27
31911;BME280;18457;52.432;16.914;2023-05-15T03:36:51;99832.45;;;15.52;75.65
31911;BME280;18457;52.432;16.914;2023-05-15T03:39:23;99830.59;;;15.38;76.36
31911;BME280;18457;52.432;16.914;2023-05-15T03:41:55;99830.39;;;15.35;76.98
31911;BME280;18457;52.432;16.914;2023-05-15T03:44:27;99827.02;;;15.41;74.71
31911;BME280;18457;52.432;16.914;2023-05-15T03:47:00;99824.02;;;15.46;74.93
31911;BME280;18457;52.432;16.914;2023-05-15T03:49:32;99821.02;;;15.58;74.65
31911;BME280;18457;52.432;16.914;2023-05-15T03:52:07;99814.48;;;15.50;74.27
31911;BME280;18457;52.432;16.914;2023-05-15T03:54:38;99804.64;;;15.47;74.99
31911;BME280;18457;52.432;16.914;2023-05-15T03:57:10;99803.79;;;15.43;77.86
31911;BME280;18457;52.432;16.914;2023-05-15T03:59:42;99815.93;;;15.44;78.78
31911;BME280;18457;52.432;16.914;2023-05-15T04:02:14;99816.23;;;15.55;79.05
31911;BME280;18457;52.432;16.914;2023-05-15T04:04:46;99834.64;;;15.61;78.90
31911;BME280;18457;52.432;16.914;2023-05-15T04:07:18;99864.88;;;15.58;77.36
31911;BME280;18457;52.432;16.914;2023-05-15T04:09:50;99855.46;;;15.50;78.16
31911;BME280;18457;52.432;16.914;2023-05-15T04:12:21;99848.44;;;15.45;80.20
31911;BME280;18457;52.432;16.914;2023-05-15T04:14:57;99850.92;;;15.46;80.81
31911;BME280;18457;52.432;16.914;2023-05-15T04:17:29;99859.44;;;15.30;83.10
31911;BME280;18457;52.432;16.914;2023-05-15T04:20:01;99854.14;;;15.23;83.97
31911;BME280;18457;52.432;16.914;2023-05-15T04:22:33;99852.38;;;15.25;86.09
31911;BME280;18457;52.432;16.914;2023-05-15T04:25:06;99850.41;;;15.18;87.02
31911;BME280;18457;52.432;16.914;2023-05-15T04:27:38;99848.08;;;15.10;88.17
31911;BME280;18457;52.432;16.914;2023-05-15T04:30:12;99844.71;;;15.12;89.26
31911;BME280;18457;52.432;16.914;2023-05-15T04:32:44;99836.56;;;15.04;89.95
31911;BME280;18457;52.432;16.914;2023-05-15T04:35:15;99829.71;;;14.93;89.97
31911;BME280;18457;52.432;16.914;2023-05-15T04:37:47;99829.34;;;15.03;89.48
31911;BME280;18457;52.432;16.914;2023-05-15T04:40:19;99825.38;;;15.10;90.08
31911;BME280;18457;52.432;16.914;2023-05-15T04:42:51;99829.46;;;15.15;90.73
31911;BME280;18457;52.432;16.914;2023-05-15T04:45:23;99829.27;;;15.12;91.57
31911;BME280;18457;52.432;16.914;2023-05-15T04:47:55;99826.34;;;15.15;91.54
31911;BME280;18457;52.432;16.914;2023-05-15T04:50:27;99816.55;;;15.18;91.27
31911;BME280;18457;52.432;16.914;2023-05-15T04:52:59;99813.26;;;15.18;90.22
31911;BME280;18457;52.432;16.914;2023-05-15T04:55:30;99809.02;;;15.20;89.92
31911;BME280;18457;52.432;16.914;2023-05-15T04:58:03;99802.88;;;15.12;92.43
31911;BME280;18457;52.432;16.914;2023-05-15T05:00:35;99804.75;;;15.18;92.30
31911;BME280;18457;52.432;16.914;2023-05-15T05:03:06;99798.95;;;15.17;91.79
31911;BME280;18457;52.432;16.914;2023-05-15T05:05:38;99795.44;;;15.18;90.65
31911;BME280;18457;52.432;16.914;2023-05-15T05:08:11;99790.61;;;15.23;90.25
31911;BME280;18457;52.432;16.914;2023-05-15T05:10:42;99791.66;;;15.28;89.78
31911;BME280;18457;52.432;16.914;2023-05-15T05:13:14;99795.94;;;15.19;91.15
31911;BME280;18457;52.432;16.914;2023-05-15T05:15:46;99795.16;;;15.13;92.14
31911;BME280;18457;52.432;16.914;2023-05-15T05:18:18;99787.04;;;15.02;93.29
31911;BME280;18457;52.432;16.914;2023-05-15T05:20:50;99785.59;;;14.98;93.42
31911;BME280;18457;52.432;16.914;2023-05-15T05:23:29;99784.96;;;14.96;91.79
31911;BME280;18457;52.432;16.914;2023-05-15T05:26:01;99778.32;;;15.01;91.34
31911;BME280;18457;52.432;16.914;2023-05-15T05:28:35;99768.50;;;14.87;92.88
31911;BME280;18457;52.432;16.914;2023-05-15T05:31:07;99765.10;;;15.04;93.57
31911;BME280;18457;52.432;16.914;2023-05-15T05:33:39;99763.27;;;14.86;91.79
31911;BME280;18457;52.432;16.914;2023-05-15T05:36:11;99759.43;;;14.87;92.38
31911;BME280;18457;52.432;16.914;2023-05-15T05:38:43;99756.44;;;14.92;93.03
31911;BME280;18457;52.432;16.914;2023-05-15T05:41:16;99760.65;;;15.02;92.63
31911;BME280;18457;52.432;16.914;2023-05-15T05:43:48;99757.20;;;15.01;93.45
31911;BME280;18457;52.432;16.914;2023-05-15T05:46:20;99754.84;;;14.92;94.13
31911;BME280;18457;52.432;16.914;2023-05-15T05:48:52;99754.44;;;14.99;94.11
31911;BME280;18457;52.432;16.914;2023-05-15T05:51:24;99747.61;;;14.94;94.45
31911;BME280;18457;52.432;16.914;2023-05-15T05:53:55;99745.53;;;15.06;94.51
31911;BME280;18457;52.432;16.914;2023-05-15T05:56:27;99745.92;;;15.19;93.62
31911;BME280;18457;52.432;16.914;2023-05-15T05:59:00;99736.23;;;15.26;92.61
31911;BME280;18457;52.432;16.914;2023-05-15T06:01:32;99738.37;;;15.27;91.81
31911;BME280;18457;52.432;16.914;2023-05-15T06:04:04;99736.92;;;15.20;92.20
31911;BME280;18457;52.432;16.914;2023-05-15T06:06:36;99729.97;;;15.21;91.65
31911;BME280;18457;52.432;16.914;2023-05-15T06:09:08;99726.80;;;15.19;91.13
31911;BME280;18457;52.432;16.914;2023-05-15T06:11:39;99718.69;;;15.07;93.21
31911;BME280;18457;52.432;16.914;2023-05-15T06:14:12;99715.46;;;15.07;93.52
31911;BME280;18457;52.432;16.914;2023-05-15T06:16:44;99707.15;;;15.09;94.01
31911;BME280;18457;52.432;16.914;2023-05-15T06:19:15;99699.79;;;14.97;94.26
31911;BME280;18457;52.432;16.914;2023-05-15T06:21:48;99696.18;;;15.07;94.18
31911;BME280;18457;52.432;16.914;2023-05-15T06:24:19;99702.66;;;15.21;94.49
31911;BME280;18457;52.432;16.914;2023-05-15T06:26:51;99701.13;;;15.26;95.57
31911;BME280;18457;52.432;16.914;2023-05-15T06:29:23;99691.45;;;15.17;94.73
31911;BME280;18457;52.432;16.914;2023-05-15T06:31:55;99687.86;;;15.19;95.07
31911;BME280;18457;52.432;16.914;2023-05-15T06:34:27;99685.02;;;15.31;95.78
31911;BME280;18457;52.432;16.914;2023-05-15T06:37:00;99682.83;;;15.45;95.16
31911;BME280;18457;52.432;16.914;2023-05-15T06:39:32;99684.29;;;15.54;93.70
31911;BME280;18457;52.432;16.914;2023-05-15T06:42:04;99683.20;;;15.61;93.27
31911;BME280;18457;52.432;16.914;2023-05-15T06:44:37;99683.37;;;15.51;93.53
31911;BME280;18457;52.432;16.914;2023-05-15T06:47:09;99682.02;;;15.58;93.88
31911;BME280;18457;52.432;16.914;2023-05-15T06:49:41;99679.31;;;15.58;94.36
31911;BME280;18457;52.432;16.914;2023-05-15T06:52:13;99679.35;;;15.48;94.60
31911;BME280;18457;52.432;16.914;2023-05-15T06:54:45;99673.90;;;15.38;95.15
31911;BME280;18457;52.432;16.914;2023-05-15T06:57:17;99671.29;;;15.25;95.57
31911;BME280;18457;52.432;16.914;2023-05-15T06:59:49;99672.73;;;15.13;97.44
31911;BME280;18457;52.432;16.914;2023-05-15T07:02:21;99668.61;;;15.15;97.59
31911;BME280;18457;52.432;16.914;2023-05-15T07:04:53;99666.50;;;15.01;98.31
31911;BME280;18457;52.432;16.914;2023-05-15T07:07:25;99663.65;;;14.96;99.17
31911;BME280;18457;52.432;16.914;2023-05-15T07:09:57;99659.02;;;15.01;99.97
31911;BME280;18457;52.432;16.914;2023-05-15T07:12:29;99657.84;;;15.06;100.00
31911;BME280;18457;52.432;16.914;2023-05-15T07:15:02;99656.36;;;15.13;99.93
31911;BME280;18457;52.432;16.914;2023-05-15T07:17:34;99649.05;;;15.20;98.42
31911;BME280;18457;52.432;16.914;2023-05-15T07:20:08;99649.38;;;15.24;97.63
31911;BME280;18457;52.432;16.914;2023-05-15T07:22:40;99646.11;;;15.30;97.59
31911;BME280;18457;52.432;16.914;2023-05-15T07:25:25;99641.45;;;15.35;98.75
31911;BME280;18457;52.432;16.914;2023-05-15T07:27:57;99643.40;;;15.37;98.46
31911;BME280;18457;52.432;16.914;2023-05-15T07:30:29;99635.52;;;15.37;97.87
31911;BME280;18457;52.432;16.914;2023-05-15T07:33:01;99633.67;;;15.25;98.40
31911;BME280;18457;52.432;16.914;2023-05-15T07:35:33;99634.45;;;15.27;98.52
31911;BME280;18457;52.432;16.914;2023-05-15T07:38:05;99638.86;;;15.26;98.48
31911;BME280;18457;52.432;16.914;2023-05-15T07:40:37;99631.69;;;15.25;99.52
31911;BME280;18457;52.432;16.914;2023-05-15T07:43:09;99630.23;;;15.31;99.25
31911;BME280;18457;52.432;16.914;2023-05-15T07:45:40;99624.96;;;15.34;99.60
31911;BME280;18457;52.432;16.914;2023-05-15T07:48:17;99625.76;;;15.20;99.99
31911;BME280;18457;52.432;16.914;2023-05-15T07:50:49;99630.45;;;15.27;100.00
31911;BME280;18457;52.432;16.914;2023-05-15T07:53:21;99628.94;;;15.34;100.00
31911;BME280;18457;52.432;16.914;2023-05-15T07:55:54;99618.70;;;15.35;100.00
31911;BME280;18457;52.432;16.914;2023-05-15T07:58:26;99618.83;;;15.40;100.00
31911;BME280;18457;52.432;16.914;2023-05-15T08:00:58;99620.67;;;15.36;99.95
31911;BME280;18457;52.432;16.914;2023-05-15T08:03:30;99618.05;;;15.37;100.00
31911;BME280;18457;52.432;16.914;2023-05-15T08:06:03;99616.03;;;15.41;100.00
31911;BME280;18457;52.432;16.914;2023-05-15T08:08:37;99614.79;;;15.44;100.00
31911;BME280;18457;52.432;16.914;2023-05-15T08:11:09;99612.98;;;15.37;100.00
31911;BME280;18457;52.432;16.914;2023-05-15T08:13:40;99613.24;;;15.42;100.00
31911;BME280;18457;52.432;16.914;2023-05-15T08:16:12;99608.57;;;15.44;100.00
31911;BME280;18457;52.432;16.914;2023-05-15T08:18:44;99610.02;;;15.44;100.00
31911;BME280;18457;52.432;16.914;2023-05-15T08:21:16;99604.42;;;15.40;100.00
31911;BME280;18457;52.432;16.914;2023-05-15T08:23:48;99602.73;;;15.45;100.00
31911;BME280;18457;52.432;16.914;2023-05-15T08:26:20;99596.90;;;15.45;100.00
31911;BME280;18457;52.432;16.914;2023-05-15T08:28:52;99593.44;;;15.48;100.00
31911;BME280;18457;52.432;16.914;2023-05-15T08:31:23;99592.05;;;15.47;100.00
31911;BME280;18457;52.432;16.914;2023-05-15T08:33:55;99592.04;;;15.50;100.00
31911;BME280;18457;52.432;16.914;2023-05-15T08:36:27;99584.14;;;15.35;100.00
31911;BME280;18457;52.432;16.914;2023-05-15T08:38:59;99582.88;;;15.32;100.00
31911;BME280;18457;52.432;16.914;2023-05-15T08:41:35;99573.86;;;15.27;100.00
31911;BME280;18457;52.432;16.914;2023-05-15T08:44:11;99570.00;;;15.05;100.00
31911;BME280;18457;52.432;16.914;2023-05-15T08:46:42;99569.38;;;15.10;100.00
31911;BME280;18457;52.432;16.914;2023-05-15T08:49:18;99573.48;;;15.18;100.00
31911;BME280;18457;52.432;16.914;2023-05-15T08:51:53;99567.68;;;15.24;100.00
31911;BME280;18457;52.432;16.914;2023-05-15T08:54:26;99562.95;;;15.20;100.00
31911;BME280;18457;52.432;16.914;2023-05-15T08:56:58;99562.59;;;15.11;100.00
31911;BME280;18457;52.432;16.914;2023-05-15T08:59:30;99558.94;;;15.02;100.00
31911;BME280;18457;52.432;16.914;2023-05-15T09:02:02;99557.98;;;15.12;100.00
31911;BME280;18457;52.432;16.914;2023-05-15T09:04:35;99555.90;;;15.17;100.00
31911;BME280;18457;52.432;16.914;2023-05-15T09:07:08;99550.23;;;15.08;100.00
31911;BME280;18457;52.432;16.914;2023-05-15T09:09:41;99548.73;;;15.15;100.00
31911;BME280;18457;52.432;16.914;2023-05-15T09:12:13;99549.06;;;15.25;100.00
31911;BME280;18457;52.432;16.914;2023-05-15T09:14:45;99547.50;;;15.33;100.00
31911;BME280;18457;52.432;16.914;2023-05-15T09:17:17;99543.21;;;15.41;100.00
31911;BME280;18457;52.432;16.914;2023-05-15T09:19:49;99541.98;;;15.47;100.00
31911;BME280;18457;52.432;16.914;2023-05-15T09:22:21;99538.08;;;15.39;100.00
31911;BME280;18457;52.432;16.914;2023-05-15T09:24:55;99538.32;;;15.47;100.00
31911;BME280;18457;52.432;16.914;2023-05-15T09:27:27;99534.80;;;15.45;100.00
31911;BME280;18457;52.432;16.914;2023-05-15T09:30:10;99532.52;;;15.40;100.00
31911;BME280;18457;52.432;16.914;2023-05-15T09:32:42;99529.77;;;15.44;100.00
31911;BME280;18457;52.432;16.914;2023-05-15T09:35:28;99530.05;;;15.39;100.00
31911;BME280;18457;52.432;16.914;2023-05-15T09:38:02;99528.83;;;15.38;100.00
31911;BME280;18457;52.432;16.914;2023-05-15T09:40:35;99523.09;;;15.33;100.00
31911;BME280;18457;52.432;16.914;2023-05-15T09:43:07;99515.04;;;15.31;100.00
31911;BME280;18457;52.432;16.914;2023-05-15T09:45:40;99514.51;;;15.27;100.00
31911;BME280;18457;52.432;16.914;2023-05-15T09:48:13;99515.98;;;15.30;100.00
31911;BME280;18457;52.432;16.914;2023-05-15T09:50:45;99511.91;;;15.32;100.00
31911;BME280;18457;52.432;16.914;2023-05-15T09:53:17;99512.16;;;15.33;100.00
31911;BME280;18457;52.432;16.914;2023-05-15T09:55:52;99516.79;;;15.35;100.00
31911;BME280;18457;52.432;16.914;2023-05-15T09:58:24;99514.97;;;15.32;100.00
31911;BME280;18457;52.432;16.914;2023-05-15T10:00:59;99513.10;;;15.24;100.00
31911;BME280;18457;52.432;16.914;2023-05-15T10:03:32;99511.80;;;15.31;100.00
31911;BME280;18457;52.432;16.914;2023-05-15T10:06:04;99506.98;;;15.35;100.00
31911;BME280;18457;52.432;16.914;2023-05-15T10:08:37;99505.64;;;15.43;100.00
31911;BME280;18457;52.432;16.914;2023-05-15T10:11:11;99502.88;;;15.46;100.00
31911;BME280;18457;52.432;16.914;2023-05-15T10:13:43;99503.29;;;15.52;100.00
31911;BME280;18457;52.432;16.914;2023-05-15T10:16:16;99496.14;;;15.59;100.00
31911;BME280;18457;52.432;16.914;2023-05-15T10:18:51;99494.41;;;15.63;100.00
31911;BME280;18457;52.432;16.914;2023-05-15T10:21:23;99494.75;;;15.69;100.00
31911;BME280;18457;52.432;16.914;2023-05-15T10:23:58;99493.13;;;15.69;100.00
31911;BME280;18457;52.432;16.914;2023-05-15T10:26:35;99492.36;;;15.79;100.00
31911;BME280;18457;52.432;16.914;2023-05-15T10:29:10;99492.20;;;15.82;100.00
31911;BME280;18457;52.432;16.914;2023-05-15T10:31:43;99493.78;;;15.86;100.00
31911;BME280;18457;52.432;16.914;2023-05-15T10:34:15;99491.75;;;15.80;100.00
31911;BME280;18457;52.432;16.914;2023-05-15T10:36:49;99493.50;;;15.75;100.00
31911;BME280;18457;52.432;16.914;2023-05-15T10:39:22;99492.27;;;15.72;100.00
31911;BME280;18457;52.432;16.914;2023-05-15T10:41:56;99489.35;;;15.63;100.00
31911;BME280;18457;52.432;16.914;2023-05-15T10:44:28;99485.09;;;15.64;100.00
31911;BME280;18457;52.432;16.914;2023-05-15T10:47:01;99483.42;;;15.61;100.00
31911;BME280;18457;52.432;16.914;2023-05-15T10:49:34;99484.09;;;15.56;99.72
31911;BME280;18457;52.432;16.914;2023-05-15T10:52:06;99481.92;;;15.56;99.65
31911;BME280;18457;52.432;16.914;2023-05-15T10:54:39;99482.65;;;15.62;99.81
31911;BME280;18457;52.432;16.914;2023-05-15T10:57:12;99479.11;;;15.60;100.00
31911;BME280;18457;52.432;16.914;2023-05-15T10:59:44;99473.45;;;15.61;99.97
31911;BME280;18457;52.432;16.914;2023-05-15T11:02:23;99469.20;;;15.58;100.00
31911;BME280;18457;52.432;16.914;2023-05-15T11:04:56;99471.25;;;15.61;100.00
31911;BME280;18457;52.432;16.914;2023-05-15T11:07:28;99467.94;;;15.58;100.00
31911;BME280;18457;52.432;16.914;2023-05-15T11:10:33;99465.44;;;15.58;100.00
31911;BME280;18457;52.432;16.914;2023-05-15T11:12:59;99464.91;;;15.66;100.00
31911;BME280;18457;52.432;16.914;2023-05-15T11:15:41;99468.61;;;15.68;100.00
31911;BME280;18457;52.432;16.914;2023-05-15T11:18:14;99463.86;;;15.65;100.00
31911;BME280;18457;52.432;16.914;2023-05-15T11:21:06;99458.16;;;15.66;100.00
31911;BME280;18457;52.432;16.914;2023-05-15T11:23:41;99458.08;;;15.62;100.00
31911;BME280;18457;52.432;16.914;2023-05-15T11:26:13;99453.21;;;15.61;100.00
31911;BME280;18457;52.432;16.914;2023-05-15T11:28:45;99448.83;;;15.61;100.00
31911;BME280;18457;52.432;16.914;2023-05-15T11:31:17;99449.97;;;15.63;100.00
31911;BME280;18457;52.432;16.914;2023-05-15T11:34:05;99443.67;;;15.68;100.00
31911;BME280;18457;52.432;16.914;2023-05-15T11:36:38;99440.58;;;15.68;100.00
31911;BME280;18457;52.432;16.914;2023-05-15T11:39:11;99438.52;;;15.63;100.00
31911;BME280;18457;52.432;16.914;2023-05-15T11:41:43;99436.14;;;15.54;100.00
31911;BME280;18457;52.432;16.914;2023-05-15T11:44:20;99434.52;;;15.60;100.00
31911;BME280;18457;52.432;16.914;2023-05-15T11:46:53;99433.25;;;15.56;100.00
31911;BME280;18457;52.432;16.914;2023-05-15T11:49:26;99431.88;;;15.56;100.00
31911;BME280;18457;52.432;16.914;2023-05-15T11:51:59;99427.15;;;15.58;100.00
31911;BME280;18457;52.432;16.914;2023-05-15T11:54:30;99425.89;;;15.61;100.00
31911;BME280;18457;52.432;16.914;2023-05-15T11:57:01;99422.40;;;15.68;100.00
31911;BME280;18457;52.432;16.914;2023-05-15T11:59:35;99417.58;;;15.75;100.00
31911;BME280;18457;52.432;16.914;2023-05-15T12:02:07;99419.95;;;15.81;100.00
31911;BME280;18457;52.432;16.914;2023-05-15T12:04:39;99421.23;;;15.81;100.00
31911;BME280;18457;52.432;16.914;2023-05-15T12:07:11;99420.40;;;15.82;100.00
31911;BME280;18457;52.432;16.914;2023-05-15T12:09:44;99418.50;;;15.81;100.00
31911;BME280;18457;52.432;16.914;2023-05-15T12:12:20;99416.39;;;15.82;100.00
31911;BME280;18457;52.432;16.914;2023-05-15T12:14:59;99413.95;;;15.78;100.00
31911;BME280;18457;52.432;16.914;2023-05-15T12:17:31;99414.98;;;15.73;100.00
31911;BME280;18457;52.432;16.914;2023-05-15T12:20:06;99412.95;;;15.70;100.00
31911;BME280;18457;52.432;16.914;2023-05-15T12:22:40;99415.45;;;15.65;100.00
31911;BME280;18457;52.432;16.914;2023-05-15T12:25:13;99408.11;;;15.63;100.00
31911;BME280;18457;52.432;16.914;2023-05-15T12:27:45;99405.98;;;15.59;100.00
31911;BME280;18457;52.432;16.914;2023-05-15T12:30:18;99402.89;;;15.65;100.00
31911;BME280;18457;52.432;16.914;2023-05-15T12:32:49;99399.02;;;15.60;100.00
31911;BME280;18457;52.432;16.914;2023-05-15T12:35:21;99401.58;;;15.57;100.00
31911;BME280;18457;52.432;16.914;2023-05-15T12:37:53;99396.71;;;15.59;100.00
31911;BME280;18457;52.432;16.914;2023-05-15T12:40:25;99395.61;;;15.59;100.00
31911;BME280;18457;52.432;16.914;2023-05-15T12:42:57;99393.91;;;15.60;100.00
31911;BME280;18457;52.432;16.914;2023-05-15T12:45:31;99393.27;;;15.56;100.00
31911;BME280;18457;52.432;16.914;2023-05-15T12:48:05;99390.27;;;15.51;100.00
31911;BME280;18457;52.432;16.914;2023-05-15T12:50:37;99385.04;;;15.56;100.00
31911;BME280;18457;52.432;16.914;2023-05-15T12:53:13;99383.09;;;15.56;100.00
31911;BME280;18457;52.432;16.914;2023-05-15T12:55:46;99380.77;;;15.55;100.00
31911;BME280;18457;52.432;16.914;2023-05-15T12:58:18;99379.30;;;15.61;100.00
31911;BME280;18457;52.432;16.914;2023-05-15T13:00:51;99376.21;;;15.64;100.00
31911;BME280;18457;52.432;16.914;2023-05-15T13:03:25;99376.99;;;15.66;100.00
31911;BME280;18457;52.432;16.914;2023-05-15T13:05:57;99371.02;;;15.62;100.00
31911;BME280;18457;52.432;16.914;2023-05-15T13:08:29;99369.77;;;15.56;100.00
31911;BME280;18457;52.432;16.914;2023-05-15T13:11:02;99362.27;;;15.62;100.00
31911;BME280;18457;52.432;16.914;2023-05-15T13:13:44;99364.81;;;15.71;100.00
31911;BME280;18457;52.432;16.914;2023-05-15T13:16:24;99359.70;;;15.77;100.00
31911;BME280;18457;52.432;16.914;2023-05-15T13:18:59;99362.77;;;15.86;100.00